Time;durP1;ratioP1;P1;durP2;ratioP2;P2;SDS_P1;SDS_P2;PMS_P1;PMS_P2;Temp;Humidity;BMP_temperature;BMP_pressure;BME280_temperature;BME280_humidity;BME280_pressure;Samples;Min_cycle;Max_cycle;Signal;HPM_P1;HPM_P2
2022/06/16 00:02:14;;;;;;;;;;;;;;;14.16;100.00;100159.03;5055286;28;842;-62
2022/06/16 00:04:46;;;;;;;;;;;;;;;14.27;100.00;100163.25;5055233;28;869;-62
2022/06/16 00:07:15;;;;;;;;;;;;;;;14.37;100.00;100167.06;5055464;28;830;-62
2022/06/16 00:09:42;;;;;;;;;;;;;;;14.47;100.00;100171.69;5055118;28;795;-62
2022/06/16 00:12:09;;;;;;;;;;;;;;;14.52;100.00;100167.66;5055007;28;1951;-62
2022/06/16 00:14:36;;;;;;;;;;;;;;;14.56;100.00;100173.19;5055080;28;810;-62
2022/06/16 00:17:03;;;;;;;;;;;;;;;14.49;100.00;100166.50;5055129;28;818;-63
2022/06/16 00:19:30;;;;;;;;;;;;;;;14.32;100.00;100166.75;5054958;28;876;-62
2022/06/16 00:21:56;;;;;;;;;;;;;;;14.12;100.00;100166.63;5054896;28;846;-62
2022/06/16 00:24:26;;;;;;;;;;;;;;;13.93;100.00;100162.50;5054856;28;810;-62
2022/06/16 00:26:54;;;;;;;;;;;;;;;13.78;100.00;100168.25;5054840;28;854;-62
2022/06/16 00:29:20;;;;;;;;;;;;;;;13.63;100.00;100166.84;5054929;28;926;-63
2022/06/16 00:31:47;;;;;;;;;;;;;;;13.52;100.00;100163.41;5054632;28;1914;-62
2022/06/16 00:34:14;;;;;;;;;;;;;;;13.42;100.00;100154.78;5054721;28;814;-62
2022/06/16 00:36:40;;;;;;;;;;;;;;;13.36;100.00;100155.66;5054610;28;896;-62
2022/06/16 00:39:06;;;;;;;;;;;;;;;13.26;100.00;100152.53;5054616;28;818;-64
2022/06/16 00:41:33;;;;;;;;;;;;;;;13.21;100.00;100160.53;5054530;28;921;-64
2022/06/16 00:44:01;;;;;;;;;;;;;;;13.21;100.00;100149.44;5054656;28;893;-63
2022/06/16 00:46:30;;;;;;;;;;;;;;;13.21;100.00;100147.44;5054350;28;842;-62
2022/06/16 00:49:03;;;;;;;;;;;;;;;13.19;100.00;100149.84;5054389;28;830;-62
2022/06/16 00:51:31;;;;;;;;;;;;;;;13.18;100.00;100153.81;5054569;28;1949;-62
2022/06/16 00:54:05;;;;;;;;;;;;;;;13.14;100.00;100166.13;5054513;28;869;-62
2022/06/16 00:56:32;;;;;;;;;;;;;;;13.12;100.00;100158.25;5054329;28;818;-63
2022/06/16 00:59:02;;;;;;;;;;;;;;;13.22;100.00;100164.88;5053481;28;921;-62
2022/06/16 01:01:28;;;;;;;;;;;;;;;13.21;100.00;100158.53;5054190;28;876;-62
2022/06/16 01:06:41;;;;;;;;;;;;;;;13.16;100.00;100163.75;5054057;28;625;-62
2022/06/16 01:09:09;;;;;;;;;;;;;;;13.08;100.00;100160.25;5053997;28;835;-62
2022/06/16 01:14:59;;;;;;;;;;;;;;;13.02;100.00;100153.59;5053860;28;632;-62
2022/06/16 01:17:33;;;;;;;;;;;;;;;13.00;100.00;100153.19;5053867;28;822;-62
2022/06/16 01:20:08;;;;;;;;;;;;;;;12.99;100.00;100154.38;5053853;28;818;-61
2022/06/16 01:22:44;;;;;;;;;;;;;;;12.92;100.00;100152.47;5053814;28;830;-62
2022/06/16 01:25:37;;;;;;;;;;;;;;;12.87;100.00;100150.16;5053769;28;1046;-62
2022/06/16 01:28:13;;;;;;;;;;;;;;;12.82;100.00;100154.16;5037705;28;1302;-62
2022/06/16 01:30:49;;;;;;;;;;;;;;;12.78;100.00;100147.84;5053410;28;1278;-63
2022/06/16 01:33:23;;;;;;;;;;;;;;;12.74;100.00;100151.81;5053611;28;1914;-64
2022/06/16 01:36:00;;;;;;;;;;;;;;;12.70;100.00;100154.63;5053689;28;850;-63
2022/06/16 01:38:41;;;;;;;;;;;;;;;12.63;100.00;100154.69;5053501;28;913;-63
2022/06/16 01:41:18;;;;;;;;;;;;;;;12.59;100.00;100159.50;5053485;28;877;-63
2022/06/16 01:43:52;;;;;;;;;;;;;;;12.59;100.00;100162.25;5053333;28;880;-63
2022/06/16 01:46:22;;;;;;;;;;;;;;;12.60;100.00;100155.50;5053403;28;833;-63
2022/06/16 01:48:51;;;;;;;;;;;;;;;12.58;100.00;100157.91;5051995;28;1259;-63
2022/06/16 01:51:21;;;;;;;;;;;;;;;12.58;100.00;100155.91;5053179;28;1939;-63
2022/06/16 01:54:00;;;;;;;;;;;;;;;12.54;100.00;100154.34;5053739;28;794;-63
2022/06/16 01:56:40;;;;;;;;;;;;;;;12.50;100.00;100156.38;5053170;28;870;-63
2022/06/16 01:59:11;;;;;;;;;;;;;;;12.45;100.00;100147.28;5053131;28;897;-63
2022/06/16 02:01:40;;;;;;;;;;;;;;;12.42;100.00;100152.88;5053259;28;889;-63
2022/06/16 02:04:12;;;;;;;;;;;;;;;12.42;100.00;100152.88;5053041;28;835;-63
2022/06/16 02:06:41;;;;;;;;;;;;;;;12.40;100.00;100152.50;5052900;28;810;-63
2022/06/16 02:09:12;;;;;;;;;;;;;;;12.35;100.00;100159.22;5052873;28;818;-63
2022/06/16 02:11:40;;;;;;;;;;;;;;;12.35;100.00;100159.22;5051957;28;1970;-63
2022/06/16 02:14:30;;;;;;;;;;;;;;;12.37;100.00;100159.63;5051491;28;1187;-64
2022/06/16 02:16:57;;;;;;;;;;;;;;;12.39;100.00;100151.69;5047231;28;1400;-64
2022/06/16 02:19:25;;;;;;;;;;;;;;;12.40;100.00;100156.03;5052628;28;844;-63
2022/06/16 02:21:52;;;;;;;;;;;;;;;12.40;100.00;100155.25;5052808;28;916;-64
2022/06/16 02:24:20;;;;;;;;;;;;;;;12.39;100.00;100160.00;5052537;28;877;-63
2022/06/16 02:26:48;;;;;;;;;;;;;;;12.39;100.00;100162.78;5052645;28;873;-63
2022/06/16 02:29:21;;;;;;;;;;;;;;;12.40;100.00;100169.13;5052684;28;895;-63
2022/06/16 02:31:52;;;;;;;;;;;;;;;12.34;100.00;100165.97;5052240;28;1910;-63
2022/06/16 02:34:22;;;;;;;;;;;;;;;12.29;100.00;100158.09;5052484;28;877;-63
2022/06/16 02:36:49;;;;;;;;;;;;;;;12.29;100.00;100162.84;5052387;28;881;-63
2022/06/16 02:39:32;;;;;;;;;;;;;;;12.32;100.00;100164.81;5052236;28;1004;-63
2022/06/16 02:42:17;;;;;;;;;;;;;;;12.37;100.00;100167.94;5052320;28;858;-63
2022/06/16 02:44:58;;;;;;;;;;;;;;;12.50;100.00;100170.22;5052167;28;834;-63
2022/06/16 02:47:47;;;;;;;;;;;;;;;12.50;100.00;100164.69;5052206;28;795;-63
2022/06/16 02:50:21;;;;;;;;;;;;;;;12.44;100.00;100170.69;5052215;28;838;-63
2022/06/16 02:52:51;;;;;;;;;;;;;;;12.44;100.00;100169.91;5052038;28;1952;-63
2022/06/16 02:55:26;;;;;;;;;;;;;;;12.41;100.00;100167.91;5052078;28;862;-63
2022/06/16 02:57:55;;;;;;;;;;;;;;;12.41;100.00;100165.94;5052017;28;892;-63
2022/06/16 03:00:29;;;;;;;;;;;;;;;12.40;100.00;100177.44;5052010;28;889;-63
2022/06/16 03:02:56;;;;;;;;;;;;;;;12.38;100.00;100169.53;5051875;28;838;-63
2022/06/16 03:05:23;;;;;;;;;;;;;;;12.39;100.00;100167.53;5051895;28;838;-63
2022/06/16 03:07:50;;;;;;;;;;;;;;;12.41;100.00;100170.69;5052119;28;806;-63
2022/06/16 03:10:50;;;;;;;;;;;;;;;12.38;100.00;100168.75;5051753;28;881;-63
2022/06/16 03:13:05;;;;;;;;;;;;;;;12.40;100.00;100169.13;5051342;28;1941;-63
2022/06/16 03:15:32;;;;;;;;;;;;;;;12.50;100.00;100171.00;5051767;28;830;-63
2022/06/16 03:17:59;;;;;;;;;;;;;;;12.60;100.00;100172.16;5051682;28;940;-63
2022/06/16 03:20:26;;;;;;;;;;;;;;;12.68;100.00;100173.69;5051716;28;822;-62
2022/06/16 03:22:52;;;;;;;;;;;;;;;12.76;100.00;100169.66;5051401;28;873;-63
2022/06/16 03:25:19;;;;;;;;;;;;;;;12.85;100.00;100166.41;5051575;28;923;-63
2022/06/16 03:27:46;;;;;;;;;;;;;;;12.93;100.00;100161.56;5051623;28;849;-64
2022/06/16 03:30:12;;;;;;;;;;;;;;;13.01;100.00;100166.66;5051541;28;1287;-63
2022/06/16 03:32:41;;;;;;;;;;;;;;;13.15;100.00;100168.50;5050187;28;1985;-63
2022/06/16 03:35:08;;;;;;;;;;;;;;;13.24;100.00;100165.25;5050276;28;1629;-63
2022/06/16 03:37:35;;;;;;;;;;;;;;;13.31;100.00;100162.41;5051558;28;830;-63
2022/06/16 03:40:02;;;;;;;;;;;;;;;13.39;100.00;100163.16;5051523;28;861;-63
2022/06/16 03:42:30;;;;;;;;;;;;;;;13.50;100.00;100165.81;5051322;28;842;-63
2022/06/16 03:44:57;;;;;;;;;;;;;;;13.58;100.00;100161.75;5051401;28;897;-63
2022/06/16 03:47:24;;;;;;;;;;;;;;;13.67;100.00;100164.81;5051578;28;838;-64
2022/06/16 03:49:52;;;;;;;;;;;;;;;13.74;100.00;100156.41;5051320;28;948;-63
2022/06/16 03:52:19;;;;;;;;;;;;;;;13.83;100.00;100167.78;5051285;28;1882;-64
2022/06/16 03:54:46;;;;;;;;;;;;;;;13.91;100.00;100160.13;5051288;28;1050;-64
2022/06/16 03:57:13;;;;;;;;;;;;;;;14.01;100.00;100156.44;5051272;28;885;-64
2022/06/16 03:59:40;;;;;;;;;;;;;;;14.13;100.00;100151.53;5051271;28;822;-63
2022/06/16 04:02:07;;;;;;;;;;;;;;;14.22;100.00;100147.03;5051272;28;873;-64
2022/06/16 04:04:34;;;;;;;;;;;;;;;14.36;100.00;100154.38;5051192;28;869;-63
2022/06/16 04:07:01;;;;;;;;;;;;;;;14.53;100.00;100152.53;5051232;28;870;-63
2022/06/16 04:09:27;;;;;;;;;;;;;;;14.74;100.00;100159.78;5051189;28;834;-64
2022/06/16 04:11:54;;;;;;;;;;;;;;;14.96;100.00;100143.53;5050914;28;1894;-64
2022/06/16 04:14:21;;;;;;;;;;;;;;;15.20;100.00;100152.63;5051174;28;881;-64
2022/06/16 04:16:52;;;;;;;;;;;;;;;15.45;100.00;100159.75;5051061;28;901;-64
2022/06/16 04:19:21;;;;;;;;;;;;;;;15.69;100.00;100164.03;5051125;28;862;-64
2022/06/16 04:21:48;;;;;;;;;;;;;;;15.94;100.00;100157.19;5051018;28;986;-64
2022/06/16 04:24:16;;;;;;;;;;;;;;;16.10;100.00;100146.06;5050954;28;950;-64
2022/06/16 04:26:45;;;;;;;;;;;;;;;16.70;100.00;100153.47;5051026;28;806;-67
2022/06/16 04:29:12;;;;;;;;;;;;;;;16.81;100.00;100150.44;5051483;28;964;-65
2022/06/16 04:31:39;;;;;;;;;;;;;;;16.72;100.00;100153.81;5049727;28;1906;-64
2022/06/16 04:34:09;;;;;;;;;;;;;;;16.72;100.00;100148.22;5051388;28;842;-64
2022/06/16 04:36:36;;;;;;;;;;;;;;;16.68;100.00;100150.31;5054656;28;857;-65
2022/06/16 04:39:03;;;;;;;;;;;;;;;16.62;100.00;100154.84;5054827;28;826;-64
2022/06/16 04:41:30;;;;;;;;;;;;;;;16.58;100.00;100154.94;5054662;28;917;-64
2022/06/16 04:43:57;;;;;;;;;;;;;;;16.64;100.00;100146.81;5054860;28;818;-64
2022/06/16 04:46:27;;;;;;;;;;;;;;;16.75;100.00;100152.94;5054785;28;834;-64
2022/06/16 04:48:54;;;;;;;;;;;;;;;16.87;100.00;100149.47;5054423;28;842;-62
2022/06/16 04:51:21;;;;;;;;;;;;;;;17.01;100.00;100147.56;5054419;28;1984;-62
2022/06/16 04:53:48;;;;;;;;;;;;;;;17.15;100.00;100147.16;5054376;28;799;-62
2022/06/16 04:56:15;;;;;;;;;;;;;;;17.38;100.00;100142.56;5054528;28;902;-61
2022/06/16 04:58:42;;;;;;;;;;;;;;;17.62;100.00;100145.91;5054598;28;877;-62
2022/06/16 05:01:09;;;;;;;;;;;;;;;17.86;100.00;100149.22;5054180;28;870;-61
2022/06/16 05:03:36;;;;;;;;;;;;;;;18.07;100.00;100143.00;5054182;28;869;-62
2022/06/16 05:06:03;;;;;;;;;;;;;;;18.22;100.00;100148.16;5054225;28;807;-62
2022/06/16 05:08:30;;;;;;;;;;;;;;;18.37;100.00;100160.50;5054041;28;880;-63
2022/06/16 05:10:57;;;;;;;;;;;;;;;18.61;100.00;100160.91;5054010;28;814;-62
2022/06/16 05:13:25;;;;;;;;;;;;;;;19.02;100.00;100153.59;5053941;28;1882;-62
2022/06/16 05:15:55;;;;;;;;;;;;;;;19.24;100.00;100152.84;5053983;28;846;-62
2022/06/16 05:18:22;;;;;;;;;;;;;;;19.53;100.00;100156.19;5053839;28;920;-62
2022/06/16 05:20:50;;;;;;;;;;;;;;;20.10;100.00;100152.53;5053797;28;858;-62
2022/06/16 05:23:18;;;;;;;;;;;;;;;20.93;100.00;100148.00;5053802;28;873;-62
2022/06/16 05:25:45;;;;;;;;;;;;;;;21.95;100.00;100156.41;5054050;28;869;-62
2022/06/16 05:28:12;;;;;;;;;;;;;;;22.69;100.00;100158.97;5053722;28;901;-62
2022/06/16 05:30:40;;;;;;;;;;;;;;;23.50;100.00;100156.06;5053660;28;1224;-61
2022/06/16 05:33:07;;;;;;;;;;;;;;;24.21;97.50;100150.66;5053660;28;1972;-62
2022/06/16 05:35:34;;;;;;;;;;;;;;;24.68;92.46;100157.28;5052278;28;1362;-63
2022/06/16 05:38:01;;;;;;;;;;;;;;;25.19;90.22;100158.75;5053555;28;855;-63
2022/06/16 05:40:28;;;;;;;;;;;;;;;25.64;87.02;100164.16;5053402;28;1044;-62
2022/06/16 05:42:56;;;;;;;;;;;;;;;26.08;84.93;100158.16;5053504;28;825;-62
2022/06/16 05:45:23;;;;;;;;;;;;;;;26.14;85.40;100161.06;5053191;28;941;-62
2022/06/16 05:47:50;;;;;;;;;;;;;;;26.09;84.51;100158.94;5053300;28;894;-62
2022/06/16 05:50:17;;;;;;;;;;;;;;;26.06;86.54;100157.88;5053486;28;861;-61
2022/06/16 05:52:44;;;;;;;;;;;;;;;25.98;86.22;100161.69;5053567;28;1886;-62
2022/06/16 05:55:14;;;;;;;;;;;;;;;26.21;85.13;100157.75;5053174;28;890;-61
2022/06/16 05:57:40;;;;;;;;;;;;;;;26.67;83.60;100161.69;5053160;28;1009;-62
2022/06/16 06:00:08;;;;;;;;;;;;;;;27.25;81.09;100164.34;5053071;28;822;-62
2022/06/16 06:02:35;;;;;;;;;;;;;;;27.68;78.94;100167.81;5053065;28;869;-62
2022/06/16 06:05:03;;;;;;;;;;;;;;;28.18;76.76;100171.22;5051674;28;2523;-62
2022/06/16 06:16:25;;;;;;;;;;;;;;;28.82;78.41;100168.56;5052894;28;981;-61
2022/06/16 06:18:34;;;;;;;;;;;;;;;30.24;71.00;100167.28;5052796;28;672;-63
2022/06/16 06:21:01;;;;;;;;;;;;;;;30.73;73.29;100164.50;5052876;28;850;-62
2022/06/16 06:23:28;;;;;;;;;;;;;;;30.96;72.54;100166.34;5052698;28;818;-62
2022/06/16 06:25:56;;;;;;;;;;;;;;;31.32;71.85;100173.44;5052566;28;827;-62
2022/06/16 06:28:24;;;;;;;;;;;;;;;31.62;73.26;100174.59;5052674;28;909;-62
2022/06/16 06:30:51;;;;;;;;;;;;;;;31.99;67.90;100173.81;5052221;28;1282;-62
2022/06/16 06:33:19;;;;;;;;;;;;;;;31.85;70.19;100175.81;5052517;28;1914;-62
2022/06/16 06:35:46;;;;;;;;;;;;;;;32.29;70.10;100175.66;5052396;28;803;-62
2022/06/16 06:38:14;;;;;;;;;;;;;;;32.43;65.83;100171.47;5052245;28;845;-63
2022/06/16 06:40:42;;;;;;;;;;;;;;;32.25;66.14;100172.34;5052313;28;826;-62
2022/06/16 06:43:09;;;;;;;;;;;;;;;32.70;70.19;100171.56;5052378;28;818;-61
2022/06/16 06:45:36;;;;;;;;;;;;;;;33.17;68.56;100158.69;5052190;28;830;-61
2022/06/16 06:48:04;;;;;;;;;;;;;;;33.40;64.75;100159.72;5052388;28;811;-62
2022/06/16 06:50:33;;;;;;;;;;;;;;;33.25;63.75;100165.28;5052125;28;984;-61
2022/06/16 06:53:00;;;;;;;;;;;;;;;33.38;63.20;100159.50;5052068;28;1949;-61
2022/06/16 06:55:28;;;;;;;;;;;;;;;33.34;60.41;100170.53;5052111;28;834;-62
2022/06/16 06:57:55;;;;;;;;;;;;;;;33.32;61.71;100173.19;5050212;28;817;-62
2022/06/16 07:00:23;;;;;;;;;;;;;;;33.23;60.18;100176.50;5052028;28;921;-61
2022/06/16 07:02:51;;;;;;;;;;;;;;;32.95;56.25;100178.59;5052048;28;957;-61
2022/06/16 07:05:18;;;;;;;;;;;;;;;32.51;56.54;100177.34;5052421;28;787;-61
2022/06/16 07:07:46;;;;;;;;;;;;;;;32.75;57.92;100177.19;5052121;28;893;-61
2022/06/16 07:10:14;;;;;;;;;;;;;;;33.30;59.17;100173.72;5052168;28;877;-61
2022/06/16 07:12:42;;;;;;;;;;;;;;;33.64;58.15;100175.88;5051675;28;1941;-61
2022/06/16 07:15:10;;;;;;;;;;;;;;;33.54;53.66;100183.38;5051704;28;934;-61
2022/06/16 07:17:37;;;;;;;;;;;;;;;33.55;57.24;100174.22;5051969;28;814;-60
2022/06/16 07:20:04;;;;;;;;;;;;;;;33.82;54.90;100187.72;5051705;28;853;-60
2022/06/16 07:22:31;;;;;;;;;;;;;;;33.29;50.61;100191.50;5051694;28;806;-61
2022/06/16 07:24:59;;;;;;;;;;;;;;;33.32;51.47;100190.38;5051545;28;870;-60
2022/06/16 07:27:26;;;;;;;;;;;;;;;33.14;49.63;100189.19;5051628;28;857;-61
2022/06/16 07:29:54;;;;;;;;;;;;;;;33.05;48.13;100190.38;5051557;28;1281;-61
2022/06/16 07:32:21;;;;;;;;;;;;;;;32.93;48.29;100191.94;5051434;28;1913;-61
2022/06/16 07:34:49;;;;;;;;;;;;;;;32.62;46.58;100191.47;5051586;28;802;-61
2022/06/16 07:37:17;;;;;;;;;;;;;;;32.98;50.14;100185.31;5051468;28;810;-61
2022/06/16 07:39:42;;;;;;;;;;;;;;;33.44;52.35;100191.66;5050166;28;1239;-61
2022/06/16 07:42:10;;;;;;;;;;;;;;;33.75;48.14;100189.94;5051590;28;965;-61
2022/06/16 07:44:37;;;;;;;;;;;;;;;33.30;50.13;100179.47;5051385;28;878;-60
2022/06/16 07:47:05;;;;;;;;;;;;;;;33.39;54.03;100183.19;5051253;28;902;-60
2022/06/16 07:49:32;;;;;;;;;;;;;;;33.87;51.00;100186.81;5050083;28;1301;-61
2022/06/16 07:52:00;;;;;;;;;;;;;;;33.87;47.63;100192.56;5051286;28;1890;-61
2022/06/16 07:54:28;;;;;;;;;;;;;;;33.50;46.87;100188.66;5051538;28;822;-61
2022/06/16 07:56:54;;;;;;;;;;;;;;;33.36;42.01;100199.41;5051286;28;834;-61
2022/06/16 07:59:22;;;;;;;;;;;;;;;33.40;51.24;100202.69;5050080;28;869;-61
2022/06/16 08:01:50;;;;;;;;;;;;;;;33.92;45.35;100188.78;5051251;28;949;-61
2022/06/16 08:04:15;;;;;;;;;;;;;;;33.81;43.14;100195.53;5051296;28;834;-61
2022/06/16 08:06:43;;;;;;;;;;;;;;;33.11;46.25;100204.59;5051277;28;983;-60
2022/06/16 08:09:11;;;;;;;;;;;;;;;33.04;50.79;100206.00;5053138;28;865;-60
2022/06/16 08:14:25;;;;;;;;;;;;;;;33.07;47.12;100204.16;5055403;28;717;-61
2022/06/16 08:16:52;;;;;;;;;;;;;;;33.08;44.60;100200.00;5055112;28;814;-61
2022/06/16 08:19:19;;;;;;;;;;;;;;;33.02;48.93;100205.78;5055005;28;873;-60
2022/06/16 08:21:47;;;;;;;;;;;;;;;33.24;52.04;100201.72;5054945;28;931;-60
2022/06/16 08:24:14;;;;;;;;;;;;;;;33.43;46.42;100206.53;5053735;28;1411;-60
2022/06/16 08:26:42;;;;;;;;;;;;;;;33.33;50.56;100194.78;5054899;28;806;-61
2022/06/16 08:29:11;;;;;;;;;;;;;;;33.47;51.87;100195.50;5054987;28;964;-60
2022/06/16 08:31:39;;;;;;;;;;;;;;;33.40;44.04;100190.47;5054509;28;1914;-60
2022/06/16 08:34:07;;;;;;;;;;;;;;;32.61;44.81;100201.38;5053366;28;1322;-61
2022/06/16 08:36:33;;;;;;;;;;;;;;;32.43;52.18;100199.31;5054599;28;807;-60
2022/06/16 08:39:01;;;;;;;;;;;;;;;32.43;49.03;100207.91;5054616;28;872;-60
2022/06/16 08:41:31;;;;;;;;;;;;;;;32.75;51.79;100207.88;5054666;28;976;-60
2022/06/16 08:44:16;;;;;;;;;;;;;;;32.77;45.95;100208.09;5054480;28;807;-61
2022/06/16 08:46:45;;;;;;;;;;;;;;;33.10;49.50;100203.06;5054437;28;910;-60
2022/06/16 08:49:27;;;;;;;;;;;;;;;32.91;43.85;100203.16;5054422;28;865;-61
2022/06/16 08:52:06;;;;;;;;;;;;;;;32.78;54.16;100203.91;5054362;28;1955;-60
2022/06/16 08:54:57;;;;;;;;;;;;;;;32.75;52.70;100199.28;5054429;28;853;-60
2022/06/16 08:57:39;;;;;;;;;;;;;;;32.91;53.58;100206.03;5054300;28;834;-60
2022/06/16 09:00:07;;;;;;;;;;;;;;;33.38;55.24;100199.63;5054565;28;814;-60
2022/06/16 09:02:47;;;;;;;;;;;;;;;33.31;50.27;100197.44;5054542;28;887;-60
2022/06/16 09:05:20;;;;;;;;;;;;;;;32.88;50.85;100187.84;5054098;28;901;-60
2022/06/16 09:08:22;;;;;;;;;;;;;;;32.13;47.20;100183.97;5052770;28;905;-60
2022/06/16 09:10:55;;;;;;;;;;;;;;;31.52;43.18;100185.66;5012210;28;1096;-61
2022/06/16 09:13:22;;;;;;;;;;;;;;;31.10;44.48;100194.47;5047929;28;1886;-60
2022/06/16 09:15:58;;;;;;;;;;;;;;;30.45;44.85;100181.13;5052648;28;1585;-61
2022/06/16 09:18:40;;;;;;;;;;;;;;;30.41;49.87;100187.13;5054093;28;885;-60
2022/06/16 09:21:19;;;;;;;;;;;;;;;30.58;47.21;100184.13;5052574;28;956;-61
2022/06/16 09:23:54;;;;;;;;;;;;;;;30.31;41.70;100189.53;5053863;28;807;-60
2022/06/16 09:26:28;;;;;;;;;;;;;;;30.21;51.99;100181.84;5054408;28;870;-60
2022/06/16 09:29:10;;;;;;;;;;;;;;;30.47;50.58;100178.50;5053770;28;977;-60
2022/06/16 09:31:37;;;;;;;;;;;;;;;30.37;51.07;100180.19;5053516;28;1902;-60
2022/06/16 09:34:15;;;;;;;;;;;;;;;29.91;55.38;100185.44;5053791;28;818;-60
2022/06/16 09:36:45;;;;;;;;;;;;;;;29.86;48.52;100166.31;5053521;28;794;-61
2022/06/16 09:39:22;;;;;;;;;;;;;;;29.57;48.08;100179.91;5053811;28;811;-60
2022/06/16 09:44:50;;;;;;;;;;;;;;;29.10;51.35;100183.53;5053470;28;633;-61
2022/06/16 09:47:22;;;;;;;;;;;;;;;28.75;55.29;100177.66;5053397;28;818;-60
2022/06/16 09:49:59;;;;;;;;;;;;;;;28.64;55.41;100178.47;5053510;28;826;-61
2022/06/16 09:52:34;;;;;;;;;;;;;;;28.75;54.53;100180.50;5053261;28;1945;-61
2022/06/16 09:55:07;;;;;;;;;;;;;;;28.74;56.14;100176.09;5053161;28;810;-60
2022/06/16 09:57:42;;;;;;;;;;;;;;;28.62;52.22;100181.03;5053264;28;900;-60
2022/06/16 10:00:10;;;;;;;;;;;;;;;28.57;55.25;100173.28;5053088;28;873;-60
2022/06/16 10:31:04;;;;;;;;;;;;;;;28.64;42.32;100165.00;5324223;22;1519;-61
2022/06/16 10:33:33;;;;;;;;;;;;;;;28.85;45.10;100167.56;5031666;28;1981;-59
2022/06/16 10:36:00;;;;;;;;;;;;;;;29.17;46.46;100159.44;5032605;28;873;-59
2022/06/16 10:38:37;;;;;;;;;;;;;;;29.29;44.80;100168.69;5032472;28;877;-59
2022/06/16 10:41:23;;;;;;;;;;;;;;;29.21;42.50;100162.00;5032530;28;810;-59
2022/06/16 10:43:52;;;;;;;;;;;;;;;29.21;42.18;100162.00;5032350;28;877;-59
2022/06/16 10:46:22;;;;;;;;;;;;;;;29.15;42.41;100158.41;5032341;28;865;-59
2022/06/16 10:48:52;;;;;;;;;;;;;;;29.23;44.58;100162.25;5032436;28;898;-60
2022/06/16 10:51:22;;;;;;;;;;;;;;;29.26;40.37;100166.91;5032235;28;1878;-59
2022/06/16 10:54:08;;;;;;;;;;;;;;;29.10;38.63;100160.75;5032104;28;850;-60
2022/06/16 10:56:35;;;;;;;;;;;;;;;29.27;42.77;100159.91;5032192;28;842;-59
2022/06/16 10:59:03;;;;;;;;;;;;;;;29.62;41.60;100161.28;5032224;28;897;-59
2022/06/16 11:01:33;;;;;;;;;;;;;;;29.66;41.19;100158.88;5014325;28;1619;-59
2022/06/16 11:04:29;;;;;;;;;;;;;;;29.75;39.09;100164.31;5032006;28;922;-60
2022/06/16 11:06:57;;;;;;;;;;;;;;;29.77;38.02;100158.88;5008963;28;1140;-60
2022/06/16 11:09:25;;;;;;;;;;;;;;;29.92;39.40;100164.19;5032004;28;807;-59
2022/06/16 11:12:00;;;;;;;;;;;;;;;30.02;40.43;100161.78;5031817;28;1910;-59
2022/06/16 11:14:46;;;;;;;;;;;;;;;30.42;40.58;100163.00;5031882;28;810;-59
2022/06/16 11:17:21;;;;;;;;;;;;;;;30.51;39.84;100156.97;5031905;28;834;-61
2022/06/16 11:19:54;;;;;;;;;;;;;;;30.35;39.33;100157.13;5031740;28;934;-59
2022/06/16 11:22:30;;;;;;;;;;;;;;;30.68;40.16;100159.66;5031726;28;910;-59
2022/06/16 11:25:07;;;;;;;;;;;;;;;30.77;37.25;100152.00;5031712;28;786;-62
2022/06/16 11:27:40;;;;;;;;;;;;;;;30.64;37.58;100150.63;5031724;28;870;-59
2022/06/16 11:30:43;;;;;;;;;;;;;;;30.59;36.56;100153.50;5013921;28;1383;-60
2022/06/16 11:36:20;;;;;;;;;;;;;;;31.03;35.29;100145.78;4971132;28;681;-60
2022/06/16 11:39:25;;;;;;;;;;;;;;;30.80;33.48;100143.16;4970771;28;906;-59
2022/06/16 11:41:52;;;;;;;;;;;;;;;31.07;36.09;100149.88;4932198;29;1244;-60
2022/06/16 11:44:33;;;;;;;;;;;;;;;31.46;32.00;100142.88;4932376;29;875;-60
2022/06/16 11:47:11;;;;;;;;;;;;;;;31.61;33.35;100138.78;4954641;28;935;-60
2022/06/16 11:49:50;;;;;;;;;;;;;;;31.78;33.31;100142.16;4970571;28;1676;-59
2022/06/16 11:52:17;;;;;;;;;;;;;;;32.05;34.07;100143.06;4970615;28;1886;-61
2022/06/16 11:55:02;;;;;;;;;;;;;;;31.95;31.04;100142.66;4970548;28;997;-60
2022/06/16 11:57:28;;;;;;;;;;;;;;;32.32;32.96;100132.41;4970724;28;909;-60
2022/06/16 12:00:06;;;;;;;;;;;;;;;32.52;31.26;100138.84;4970484;28;1081;-60
2022/06/16 12:02:51;;;;;;;;;;;;;;;32.93;30.94;100134.69;4970794;28;890;-60
2022/06/16 12:05:21;;;;;;;;;;;;;;;32.61;30.06;100135.56;4970561;28;847;-59
2022/06/16 12:07:57;;;;;;;;;;;;;;;32.67;31.05;100139.09;5018062;28;1068;-59
2022/06/16 12:10:27;;;;;;;;;;;;;;;32.82;30.27;100143.47;5031347;28;790;-59
2022/06/16 12:13:11;;;;;;;;;;;;;;;33.25;29.99;100134.53;5031408;28;1890;-59
2022/06/16 12:15:44;;;;;;;;;;;;;;;33.88;30.91;100131.00;5031430;28;810;-60
2022/06/16 12:18:31;;;;;;;;;;;;;;;33.76;27.77;100131.31;5031402;28;827;-60
2022/06/16 12:21:02;;;;;;;;;;;;;;;33.88;29.65;100131.00;5000663;28;1303;-62
2022/06/16 12:23:32;;;;;;;;;;;;;;;33.86;28.31;100127.94;5013519;28;1254;-60
2022/06/16 12:26:05;;;;;;;;;;;;;;;34.06;30.52;100129.28;5031179;28;782;-60
2022/06/16 12:28:56;;;;;;;;;;;;;;;34.22;29.22;100130.94;5031124;28;802;-61
2022/06/16 12:31:23;;;;;;;;;;;;;;;34.05;27.59;100122.00;5006778;28;1977;-59
2022/06/16 12:33:57;;;;;;;;;;;;;;;33.60;27.71;100123.88;4991995;28;881;-59
2022/06/16 12:36:29;;;;;;;;;;;;;;;33.95;29.12;100125.38;4991804;28;790;-60
2022/06/16 12:39:04;;;;;;;;;;;;;;;33.99;28.41;100124.22;4991726;28;850;-60
2022/06/16 12:41:34;;;;;;;;;;;;;;;34.09;29.63;100128.16;4992582;28;830;-60
2022/06/16 12:44:01;;;;;;;;;;;;;;;34.23;27.54;100123.91;4991688;28;890;-60
2022/06/16 12:46:48;;;;;;;;;;;;;;;34.19;28.29;100125.59;4991687;28;840;-59
2022/06/16 12:49:23;;;;;;;;;;;;;;;34.43;28.55;100121.56;4991655;28;1168;-61
2022/06/16 12:51:54;;;;;;;;;;;;;;;34.51;29.43;100125.25;5006598;28;1915;-60
2022/06/16 12:54:23;;;;;;;;;;;;;;;34.75;29.55;100121.97;4991521;28;931;-61
2022/06/16 12:56:54;;;;;;;;;;;;;;;34.31;27.93;100124.72;4994239;28;851;-61
2022/06/16 12:59:25;;;;;;;;;;;;;;;33.71;29.11;100114.22;4995122;28;878;-60
2022/06/16 13:01:53;;;;;;;;;;;;;;;33.64;28.20;100117.81;4994939;28;893;-61
2022/06/16 13:04:24;;;;;;;;;;;;;;;33.53;27.69;100119.56;5010072;28;1452;-60
2022/06/16 13:06:53;;;;;;;;;;;;;;;33.69;29.52;100109.06;4994922;28;872;-60
2022/06/16 13:09:20;;;;;;;;;;;;;;;34.02;30.04;100118.16;4994786;28;986;-60
2022/06/16 13:11:58;;;;;;;;;;;;;;;33.85;29.27;100106.34;4994760;28;1894;-59
2022/06/16 13:14:32;;;;;;;;;;;;;;;34.00;29.30;100114.31;4995094;28;815;-60
2022/06/16 13:17:02;;;;;;;;;;;;;;;33.88;29.18;100108.84;4994728;28;811;-59
2022/06/16 13:19:38;;;;;;;;;;;;;;;33.79;28.71;100112.22;4994644;28;862;-60
2022/06/16 13:22:06;;;;;;;;;;;;;;;33.28;28.54;100113.38;4994593;28;855;-60
2022/06/16 13:24:39;;;;;;;;;;;;;;;32.91;29.02;100112.31;4994687;28;815;-59
2022/06/16 13:27:07;;;;;;;;;;;;;;;33.14;29.85;100112.66;4994324;28;884;-59
2022/06/16 13:29:41;;;;;;;;;;;;;;;33.38;29.64;100110.81;4994525;28;957;-59
2022/06/16 13:32:28;;;;;;;;;;;;;;;33.64;30.04;100109.97;5029201;28;1969;-61
2022/06/16 13:34:56;;;;;;;;;;;;;;;33.45;29.81;100101.53;4986436;28;1588;-60
2022/06/16 13:37:27;;;;;;;;;;;;;;;33.12;29.51;100098.13;5033574;28;909;-60
2022/06/16 13:39:55;;;;;;;;;;;;;;;33.22;30.35;100103.38;5033628;28;949;-60
2022/06/16 13:42:41;;;;;;;;;;;;;;;33.41;29.63;100101.09;5033549;28;842;-60
2022/06/16 13:45:10;;;;;;;;;;;;;;;32.93;30.35;100103.97;5033833;28;922;-59
2022/06/16 13:47:43;;;;;;;;;;;;;;;32.57;30.84;100106.50;5033494;28;881;-59
2022/06/16 13:50:31;;;;;;;;;;;;;;;32.14;30.69;100099.75;5033519;28;921;-60
2022/06/16 13:53:03;;;;;;;;;;;;;;;31.58;33.30;100100.66;5022718;28;2083;-59
2022/06/16 13:55:43;;;;;;;;;;;;;;;31.48;33.42;100106.00;5015762;28;822;-59
2022/06/16 13:58:12;;;;;;;;;;;;;;;30.97;32.80;100096.56;5033753;28;763;-59
2022/06/16 14:00:39;;;;;;;;;;;;;;;30.52;34.29;100092.16;5033121;28;890;-61
2022/06/16 14:03:15;;;;;;;;;;;;;;;30.16;34.40;100092.22;5033176;28;852;-60